sensor_id;sensor_type;location;lat;lon;timestamp;P1;durP1;ratioP1;P2;durP2;ratioP2
321;SDS011;148;51.480;7.208;2022-12-07T17:37:00;16.40;;;7.07;;
321;SDS011;148;51.480;7.208;2022-12-07T17:39:25;22.10;;;8.87;;
321;SDS011;148;51.480;7.208;2022-12-07T17:41:51;15.60;;;8.67;;
321;SDS011;148;51.480;7.208;2022-12-07T17:44:35;14.90;;;8.20;;
321;SDS011;148;51.480;7.208;2022-12-07T17:47:01;24.70;;;9.03;;
321;SDS011;148;51.480;7.208;2022-12-07T17:49:28;15.30;;;7.83;;
321;SDS011;148;51.480;7.208;2022-12-07T17:51:55;13.03;;;6.40;;
321;SDS011;148;51.480;7.208;2022-12-07T17:54:40;10.37;;;4.77;;
321;SDS011;148;51.480;7.208;2022-12-07T17:57:07;7.17;;;4.27;;
321;SDS011;148;51.480;7.208;2022-12-07T17:59:33;6.63;;;4.43;;
321;SDS011;148;51.480;7.208;2022-12-07T18:01:58;11.27;;;5.50;;
321;SDS011;148;51.480;7.208;2022-12-07T18:04:24;27.93;;;9.30;;
321;SDS011;148;51.480;7.208;2022-12-07T18:06:49;11.33;;;7.03;;
321;SDS011;148;51.480;7.208;2022-12-07T18:09:15;10.10;;;6.77;;
321;SDS011;148;51.480;7.208;2022-12-07T18:11:41;18.93;;;8.20;;
321;SDS011;148;51.480;7.208;2022-12-07T18:14:06;9.63;;;5.87;;
321;SDS011;148;51.480;7.208;2022-12-07T18:16:32;12.13;;;6.57;;
321;SDS011;148;51.480;7.208;2022-12-07T18:19:00;12.40;;;6.00;;
321;SDS011;148;51.480;7.208;2022-12-07T18:21:28;16.43;;;7.80;;
321;SDS011;148;51.480;7.208;2022-12-07T18:23:56;10.17;;;6.47;;
321;SDS011;148;51.480;7.208;2022-12-07T18:26:26;12.10;;;6.20;;
321;SDS011;148;51.480;7.208;2022-12-07T18:28:52;17.40;;;7.80;;
321;SDS011;148;51.480;7.208;2022-12-07T18:31:18;12.00;;;6.90;;
321;SDS011;148;51.480;7.208;2022-12-07T18:33:44;14.60;;;6.20;;
321;SDS011;148;51.480;7.208;2022-12-07T18:36:11;17.97;;;7.60;;
321;SDS011;148;51.480;7.208;2022-12-07T18:38:38;13.97;;;7.70;;
321;SDS011;148;51.480;7.208;2022-12-07T18:41:08;18.83;;;7.73;;
321;SDS011;148;51.480;7.208;2022-12-07T18:43:36;12.67;;;7.50;;
321;SDS011;148;51.480;7.208;2022-12-07T18:46:08;17.03;;;7.80;;
321;SDS011;148;51.480;7.208;2022-12-07T18:48:35;15.37;;;7.07;;
321;SDS011;148;51.480;7.208;2022-12-07T18:51:02;8.50;;;6.93;;
321;SDS011;148;51.480;7.208;2022-12-07T18:53:29;15.90;;;8.40;;
321;SDS011;148;51.480;7.208;2022-12-07T18:55:59;11.63;;;6.23;;
321;SDS011;148;51.480;7.208;2022-12-07T18:58:39;18.00;;;8.27;;
321;SDS011;148;51.480;7.208;2022-12-07T19:01:28;22.03;;;7.60;;
321;SDS011;148;51.480;7.208;2022-12-07T19:03:56;14.67;;;8.63;;
321;SDS011;148;51.480;7.208;2022-12-07T19:06:22;17.00;;;8.67;;
321;SDS011;148;51.480;7.208;2022-12-07T19:08:47;17.20;;;8.10;;
321;SDS011;148;51.480;7.208;2022-12-07T19:11:19;12.43;;;7.43;;
321;SDS011;148;51.480;7.208;2022-12-07T19:14:06;15.77;;;7.57;;
321;SDS011;148;51.480;7.208;2022-12-07T19:16:32;19.90;;;8.57;;
321;SDS011;148;51.480;7.208;2022-12-07T19:18:58;17.97;;;8.10;;
321;SDS011;148;51.480;7.208;2022-12-07T19:21:24;14.80;;;7.43;;
321;SDS011;148;51.480;7.208;2022-12-07T19:23:51;16.97;;;9.17;;
321;SDS011;148;51.480;7.208;2022-12-07T19:26:17;15.10;;;7.60;;
321;SDS011;148;51.480;7.208;2022-12-07T19:28:43;16.30;;;8.80;;
321;SDS011;148;51.480;7.208;2022-12-07T19:31:09;18.30;;;8.10;;
321;SDS011;148;51.480;7.208;2022-12-07T19:33:36;13.90;;;7.97;;
321;SDS011;148;51.480;7.208;2022-12-07T19:36:02;15.27;;;8.93;;
321;SDS011;148;51.480;7.208;2022-12-07T19:38:31;16.00;;;8.60;;
321;SDS011;148;51.480;7.208;2022-12-07T19:41:04;13.90;;;8.77;;
321;SDS011;148;51.480;7.208;2022-12-07T19:43:32;18.80;;;9.87;;
321;SDS011;148;51.480;7.208;2022-12-07T19:46:05;18.13;;;9.30;;
321;SDS011;148;51.480;7.208;2022-12-07T19:48:31;14.47;;;10.77;;
321;SDS011;148;51.480;7.208;2022-12-07T19:51:01;21.30;;;10.20;;
321;SDS011;148;51.480;7.208;2022-12-07T19:53:30;16.20;;;10.03;;
321;SDS011;148;51.480;7.208;2022-12-07T19:55:56;18.53;;;10.10;;
321;SDS011;148;51.480;7.208;2022-12-07T19:58:22;16.00;;;9.50;;
321;SDS011;148;51.480;7.208;2022-12-07T20:00:47;20.70;;;9.93;;
321;SDS011;148;51.480;7.208;2022-12-07T20:03:13;15.37;;;9.13;;
321;SDS011;148;51.480;7.208;2022-12-07T20:05:38;20.20;;;10.90;;
321;SDS011;148;51.480;7.208;2022-12-07T20:08:04;17.27;;;10.37;;
321;SDS011;148;51.480;7.208;2022-12-07T20:10:30;19.33;;;10.57;;
321;SDS011;148;51.480;7.208;2022-12-07T20:12:58;18.77;;;11.00;;
321;SDS011;148;51.480;7.208;2022-12-07T20:15:42;19.70;;;10.83;;
321;SDS011;148;51.480;7.208;2022-12-07T20:18:08;24.43;;;11.47;;
321;SDS011;148;51.480;7.208;2022-12-07T20:20:34;21.40;;;11.60;;
321;SDS011;148;51.480;7.208;2022-12-07T20:22:59;22.00;;;12.87;;
321;SDS011;148;51.480;7.208;2022-12-07T20:25:25;33.53;;;14.20;;
321;SDS011;148;51.480;7.208;2022-12-07T20:27:51;21.77;;;11.73;;
321;SDS011;148;51.480;7.208;2022-12-07T20:30:17;21.30;;;12.67;;
321;SDS011;148;51.480;7.208;2022-12-07T20:32:42;23.30;;;13.00;;
321;SDS011;148;51.480;7.208;2022-12-07T20:35:08;23.57;;;13.83;;
321;SDS011;148;51.480;7.208;2022-12-07T20:37:34;24.10;;;13.20;;
321;SDS011;148;51.480;7.208;2022-12-07T20:39:59;31.50;;;14.33;;
321;SDS011;148;51.480;7.208;2022-12-07T20:42:25;24.43;;;13.13;;
321;SDS011;148;51.480;7.208;2022-12-07T20:45:03;21.17;;;12.97;;
321;SDS011;148;51.480;7.208;2022-12-07T20:47:32;27.47;;;15.90;;
321;SDS011;148;51.480;7.208;2022-12-07T20:49:58;25.93;;;14.97;;
321;SDS011;148;51.480;7.208;2022-12-07T20:52:25;25.77;;;13.77;;
321;SDS011;148;51.480;7.208;2022-12-07T20:54:50;23.60;;;14.50;;
321;SDS011;148;51.480;7.208;2022-12-07T20:57:16;25.67;;;13.57;;
